sensor_id;sensor_type;location;lat;lon;timestamp;P1;durP1;ratioP1;P2;durP2;ratioP2
43363;SDS011;40636;52.424;-1.948;2023-03-14T00:01:13;0.70;;;0.70;;
43363;SDS011;40636;52.424;-1.948;2023-03-14T00:03:44;1.92;;;0.80;;
43363;SDS011;40636;52.424;-1.948;2023-03-14T00:06:11;4.18;;;1.27;;
43363;SDS011;40636;52.424;-1.948;2023-03-14T00:08:38;2.22;;;1.00;;
43363;SDS011;40636;52.424;-1.948;2023-03-14T00:11:10;1.92;;;0.88;;
43363;SDS011;40636;52.424;-1.948;2023-03-14T00:13:39;0.85;;;0.70;;
43363;SDS011;40636;52.424;-1.948;2023-03-14T00:16:10;0.70;;;0.70;;
43363;SDS011;40636;52.424;-1.948;2023-03-14T00:18:38;3.03;;;0.95;;
43363;SDS011;40636;52.424;-1.948;2023-03-14T00:21:07;0.68;;;0.55;;
43363;SDS011;40636;52.424;-1.948;2023-03-14T00:23:35;1.40;;;1.30;;
43363;SDS011;40636;52.424;-1.948;2023-03-14T00:26:05;0.82;;;0.82;;
43363;SDS011;40636;52.424;-1.948;2023-03-14T00:28:34;1.45;;;1.05;;
43363;SDS011;40636;52.424;-1.948;2023-03-14T00:31:02;3.72;;;1.23;;
43363;SDS011;40636;52.424;-1.948;2023-03-14T00:33:30;3.40;;;0.93;;
43363;SDS011;40636;52.424;-1.948;2023-03-14T00:36:05;1.23;;;1.05;;
43363;SDS011;40636;52.424;-1.948;2023-03-14T00:38:35;2.17;;;0.88;;
43363;SDS011;40636;52.424;-1.948;2023-03-14T00:41:04;4.63;;;1.33;;
43363;SDS011;40636;52.424;-1.948;2023-03-14T00:43:32;4.30;;;1.33;;
43363;SDS011;40636;52.424;-1.948;2023-03-14T00:45:59;2.63;;;1.00;;
43363;SDS011;40636;52.424;-1.948;2023-03-14T00:48:26;1.20;;;0.80;;
43363;SDS011;40636;52.424;-1.948;2023-03-14T00:50:53;0.93;;;0.93;;
43363;SDS011;40636;52.424;-1.948;2023-03-14T00:53:20;2.50;;;0.80;;
43363;SDS011;40636;52.424;-1.948;2023-03-14T00:55:48;0.95;;;0.85;;
43363;SDS011;40636;52.424;-1.948;2023-03-14T00:58:15;1.25;;;0.77;;
43363;SDS011;40636;52.424;-1.948;2023-03-14T01:00:43;1.33;;;1.00;;
43363;SDS011;40636;52.424;-1.948;2023-03-14T01:03:11;3.00;;;1.10;;
43363;SDS011;40636;52.424;-1.948;2023-03-14T01:05:39;2.53;;;1.52;;
43363;SDS011;40636;52.424;-1.948;2023-03-14T01:08:05;2.22;;;0.82;;
43363;SDS011;40636;52.424;-1.948;2023-03-14T01:10:34;3.80;;;1.60;;
43363;SDS011;40636;52.424;-1.948;2023-03-14T01:13:01;4.65;;;1.20;;
43363;SDS011;40636;52.424;-1.948;2023-03-14T01:15:27;2.95;;;1.23;;
43363;SDS011;40636;52.424;-1.948;2023-03-14T01:17:54;1.60;;;1.00;;
43363;SDS011;40636;52.424;-1.948;2023-03-14T01:20:21;2.42;;;1.60;;
43363;SDS011;40636;52.424;-1.948;2023-03-14T01:22:47;4.80;;;1.17;;
43363;SDS011;40636;52.424;-1.948;2023-03-14T01:25:15;2.70;;;0.98;;
43363;SDS011;40636;52.424;-1.948;2023-03-14T01:27:43;1.23;;;1.13;;
43363;SDS011;40636;52.424;-1.948;2023-03-14T01:30:11;3.25;;;0.80;;
43363;SDS011;40636;52.424;-1.948;2023-03-14T01:32:38;10.65;;;1.65;;
43363;SDS011;40636;52.424;-1.948;2023-03-14T01:35:05;3.40;;;1.20;;
43363;SDS011;40636;52.424;-1.948;2023-03-14T01:37:32;4.82;;;1.40;;
43363;SDS011;40636;52.424;-1.948;2023-03-14T01:39:59;4.40;;;1.30;;
43363;SDS011;40636;52.424;-1.948;2023-03-14T01:42:25;3.60;;;1.10;;
43363;SDS011;40636;52.424;-1.948;2023-03-14T01:44:59;4.95;;;0.82;;
43363;SDS011;40636;52.424;-1.948;2023-03-14T01:47:27;1.60;;;1.02;;
43363;SDS011;40636;52.424;-1.948;2023-03-14T01:49:56;2.03;;;0.75;;
43363;SDS011;40636;52.424;-1.948;2023-03-14T01:52:28;4.47;;;1.13;;
43363;SDS011;40636;52.424;-1.948;2023-03-14T01:55:02;2.40;;;1.08;;
43363;SDS011;40636;52.424;-1.948;2023-03-14T01:57:34;4.40;;;1.58;;
43363;SDS011;40636;52.424;-1.948;2023-03-14T02:00:05;0.95;;;0.90;;
43363;SDS011;40636;52.424;-1.948;2023-03-14T02:02:46;7.53;;;1.17;;
43363;SDS011;40636;52.424;-1.948;2023-03-14T02:05:16;1.70;;;1.10;;
43363;SDS011;40636;52.424;-1.948;2023-03-14T02:10:21;3.75;;;1.15;;
43363;SDS011;40636;52.424;-1.948;2023-03-14T02:12:50;1.65;;;0.90;;
43363;SDS011;40636;52.424;-1.948;2023-03-14T02:15:19;1.75;;;1.10;;
43363;SDS011;40636;52.424;-1.948;2023-03-14T02:17:46;1.65;;;1.08;;
43363;SDS011;40636;52.424;-1.948;2023-03-14T02:20:28;3.03;;;0.80;;
43363;SDS011;40636;52.424;-1.948;2023-03-14T02:23:08;2.67;;;0.98;;
43363;SDS011;40636;52.424;-1.948;2023-03-14T02:28:14;7.32;;;1.42;;
43363;SDS011;40636;52.424;-1.948;2023-03-14T02:30:41;7.13;;;2.10;;
43363;SDS011;40636;52.424;-1.948;2023-03-14T02:33:13;3.20;;;1.25;;
43363;SDS011;40636;52.424;-1.948;2023-03-14T02:36:01;1.65;;;1.13;;
43363;SDS011;40636;52.424;-1.948;2023-03-14T02:38:34;4.90;;;1.30;;
43363;SDS011;40636;52.424;-1.948;2023-03-14T02:41:02;3.67;;;1.70;;
43363;SDS011;40636;52.424;-1.948;2023-03-14T02:43:29;4.97;;;1.10;;
43363;SDS011;40636;52.424;-1.948;2023-03-14T02:45:56;3.60;;;1.20;;
43363;SDS011;40636;52.424;-1.948;2023-03-14T02:51:11;1.70;;;1.13;;
43363;SDS011;40636;52.424;-1.948;2023-03-14T02:53:40;3.65;;;1.25;;
43363;SDS011;40636;52.424;-1.948;2023-03-14T02:56:07;3.42;;;1.27;;
43363;SDS011;40636;52.424;-1.948;2023-03-14T02:58:35;2.65;;;1.23;;
43363;SDS011;40636;52.424;-1.948;2023-03-14T03:01:02;2.33;;;1.20;;
43363;SDS011;40636;52.424;-1.948;2023-03-14T03:03:29;2.90;;;1.58;;
43363;SDS011;40636;52.424;-1.948;2023-03-14T03:05:55;2.72;;;1.08;;
43363;SDS011;40636;52.424;-1.948;2023-03-14T03:08:23;3.75;;;1.42;;
43363;SDS011;40636;52.424;-1.948;2023-03-14T03:10:52;3.40;;;2.03;;
43363;SDS011;40636;52.424;-1.948;2023-03-14T03:13:19;1.67;;;1.30;;
43363;SDS011;40636;52.424;-1.948;2023-03-14T03:15:46;3.95;;;1.48;;
43363;SDS011;40636;52.424;-1.948;2023-03-14T03:18:13;3.40;;;1.77;;
43363;SDS011;40636;52.424;-1.948;2023-03-14T03:20:40;5.85;;;1.33;;
43363;SDS011;40636;52.424;-1.948;2023-03-14T03:23:06;5.45;;;1.48;;
43363;SDS011;40636;52.424;-1.948;2023-03-14T03:25:33;5.20;;;1.23;;
43363;SDS011;40636;52.424;-1.948;2023-03-14T03:28:00;5.55;;;1.17;;
43363;SDS011;40636;52.424;-1.948;2023-03-14T03:30:26;4.45;;;1.42;;
43363;SDS011;40636;52.424;-1.948;2023-03-14T03:32:53;2.38;;;1.10;;
43363;SDS011;40636;52.424;-1.948;2023-03-14T03:35:20;2.42;;;1.30;;
43363;SDS011;40636;52.424;-1.948;2023-03-14T03:37:46;3.53;;;1.10;;
43363;SDS011;40636;52.424;-1.948;2023-03-14T03:40:13;11.32;;;2.65;;
43363;SDS011;40636;52.424;-1.948;2023-03-14T03:42:41;7.05;;;1.70;;
43363;SDS011;40636;52.424;-1.948;2023-03-14T03:45:08;2.95;;;1.35;;
43363;SDS011;40636;52.424;-1.948;2023-03-14T03:47:35;3.78;;;1.33;;
43363;SDS011;40636;52.424;-1.948;2023-03-14T03:50:01;1.40;;;1.08;;
43363;SDS011;40636;52.424;-1.948;2023-03-14T03:52:28;6.43;;;1.70;;
43363;SDS011;40636;52.424;-1.948;2023-03-14T03:54:55;3.22;;;1.67;;
43363;SDS011;40636;52.424;-1.948;2023-03-14T03:57:22;7.38;;;1.70;;
43363;SDS011;40636;52.424;-1.948;2023-03-14T03:59:48;2.92;;;1.50;;
43363;SDS011;40636;52.424;-1.948;2023-03-14T04:02:15;2.25;;;1.10;;
43363;SDS011;40636;52.424;-1.948;2023-03-14T04:04:42;8.95;;;1.23;;
43363;SDS011;40636;52.424;-1.948;2023-03-14T04:07:09;4.18;;;1.42;;
43363;SDS011;40636;52.424;-1.948;2023-03-14T04:09:37;3.55;;;1.45;;
43363;SDS011;40636;52.424;-1.948;2023-03-14T04:12:04;5.90;;;1.25;;
43363;SDS011;40636;52.424;-1.948;2023-03-14T04:14:31;4.25;;;1.55;;
43363;SDS011;40636;52.424;-1.948;2023-03-14T04:16:57;4.18;;;1.10;;
43363;SDS011;40636;52.424;-1.948;2023-03-14T04:19:24;6.05;;;1.70;;
43363;SDS011;40636;52.424;-1.948;2023-03-14T04:21:50;4.13;;;1.35;;
43363;SDS011;40636;52.424;-1.948;2023-03-14T04:24:17;5.03;;;1.45;;
43363;SDS011;40636;52.424;-1.948;2023-03-14T04:26:44;2.05;;;1.33;;
43363;SDS011;40636;52.424;-1.948;2023-03-14T04:29:10;2.53;;;1.20;;
43363;SDS011;40636;52.424;-1.948;2023-03-14T04:31:38;2.83;;;1.30;;
43363;SDS011;40636;52.424;-1.948;2023-03-14T04:34:05;4.05;;;1.33;;
43363;SDS011;40636;52.424;-1.948;2023-03-14T04:36:32;6.80;;;1.50;;
43363;SDS011;40636;52.424;-1.948;2023-03-14T04:38:58;4.07;;;1.55;;
43363;SDS011;40636;52.424;-1.948;2023-03-14T04:41:25;4.60;;;1.60;;
43363;SDS011;40636;52.424;-1.948;2023-03-14T04:43:52;3.83;;;1.20;;
43363;SDS011;40636;52.424;-1.948;2023-03-14T04:46:18;2.95;;;1.27;;
43363;SDS011;40636;52.424;-1.948;2023-03-14T04:48:45;3.22;;;1.00;;
43363;SDS011;40636;52.424;-1.948;2023-03-14T04:51:12;5.80;;;1.70;;
43363;SDS011;40636;52.424;-1.948;2023-03-14T04:53:38;4.20;;;1.45;;
43363;SDS011;40636;52.424;-1.948;2023-03-14T04:56:05;2.00;;;1.50;;
43363;SDS011;40636;52.424;-1.948;2023-03-14T04:58:32;2.28;;;1.55;;
43363;SDS011;40636;52.424;-1.948;2023-03-14T05:01:02;2.88;;;1.40;;
43363;SDS011;40636;52.424;-1.948;2023-03-14T05:03:29;4.57;;;1.38;;
43363;SDS011;40636;52.424;-1.948;2023-03-14T05:05:56;7.97;;;1.38;;
43363;SDS011;40636;52.424;-1.948;2023-03-14T05:08:25;2.40;;;1.40;;
43363;SDS011;40636;52.424;-1.948;2023-03-14T05:10:54;2.05;;;1.10;;
43363;SDS011;40636;52.424;-1.948;2023-03-14T05:13:21;2.50;;;1.25;;
43363;SDS011;40636;52.424;-1.948;2023-03-14T05:15:48;4.25;;;1.58;;
43363;SDS011;40636;52.424;-1.948;2023-03-14T05:18:17;2.20;;;1.38;;
43363;SDS011;40636;52.424;-1.948;2023-03-14T05:20:44;1.30;;;1.20;;
43363;SDS011;40636;52.424;-1.948;2023-03-14T05:23:11;2.30;;;1.30;;
43363;SDS011;40636;52.424;-1.948;2023-03-14T05:25:38;0.95;;;0.85;;
43363;SDS011;40636;52.424;-1.948;2023-03-14T05:28:05;2.10;;;1.33;;
43363;SDS011;40636;52.424;-1.948;2023-03-14T05:30:31;1.25;;;1.13;;
43363;SDS011;40636;52.424;-1.948;2023-03-14T05:32:59;0.88;;;0.88;;
43363;SDS011;40636;52.424;-1.948;2023-03-14T05:35:26;1.52;;;1.30;;
43363;SDS011;40636;52.424;-1.948;2023-03-14T05:37:53;1.33;;;1.23;;
43363;SDS011;40636;52.424;-1.948;2023-03-14T05:40:19;1.58;;;1.48;;
43363;SDS011;40636;52.424;-1.948;2023-03-14T05:42:46;1.67;;;1.38;;
43363;SDS011;40636;52.424;-1.948;2023-03-14T05:45:13;1.42;;;1.33;;
43363;SDS011;40636;52.424;-1.948;2023-03-14T05:47:40;1.80;;;1.63;;
43363;SDS011;40636;52.424;-1.948;2023-03-14T05:50:06;3.20;;;1.80;;
43363;SDS011;40636;52.424;-1.948;2023-03-14T05:52:34;1.80;;;1.58;;
43363;SDS011;40636;52.424;-1.948;2023-03-14T05:55:00;3.30;;;1.90;;
43363;SDS011;40636;52.424;-1.948;2023-03-14T05:57:27;2.45;;;2.00;;
43363;SDS011;40636;52.424;-1.948;2023-03-14T05:59:53;2.65;;;1.88;;
43363;SDS011;40636;52.424;-1.948;2023-03-14T06:02:20;3.58;;;2.25;;
43363;SDS011;40636;52.424;-1.948;2023-03-14T06:04:47;1.80;;;1.60;;
43363;SDS011;40636;52.424;-1.948;2023-03-14T06:07:13;3.13;;;2.13;;
43363;SDS011;40636;52.424;-1.948;2023-03-14T06:09:40;2.00;;;1.80;;
43363;SDS011;40636;52.424;-1.948;2023-03-14T06:12:07;2.80;;;1.60;;
43363;SDS011;40636;52.424;-1.948;2023-03-14T06:14:33;1.45;;;1.35;;
43363;SDS011;40636;52.424;-1.948;2023-03-14T06:17:00;3.95;;;1.73;;
43363;SDS011;40636;52.424;-1.948;2023-03-14T06:19:27;1.60;;;1.50;;
43363;SDS011;40636;52.424;-1.948;2023-03-14T06:21:53;2.38;;;2.08;;
43363;SDS011;40636;52.424;-1.948;2023-03-14T06:24:20;2.42;;;1.95;;
43363;SDS011;40636;52.424;-1.948;2023-03-14T06:26:47;3.30;;;1.95;;
43363;SDS011;40636;52.424;-1.948;2023-03-14T06:29:13;2.72;;;1.88;;
43363;SDS011;40636;52.424;-1.948;2023-03-14T06:31:40;3.75;;;2.25;;
43363;SDS011;40636;52.424;-1.948;2023-03-14T06:34:07;2.35;;;1.88;;
43363;SDS011;40636;52.424;-1.948;2023-03-14T06:36:33;4.90;;;2.35;;
43363;SDS011;40636;52.424;-1.948;2023-03-14T06:39:00;4.05;;;1.33;;
43363;SDS011;40636;52.424;-1.948;2023-03-14T06:41:27;1.30;;;1.20;;
43363;SDS011;40636;52.424;-1.948;2023-03-14T06:43:54;1.50;;;1.40;;
43363;SDS011;40636;52.424;-1.948;2023-03-14T06:46:22;1.23;;;1.10;;
43363;SDS011;40636;52.424;-1.948;2023-03-14T06:48:49;1.73;;;1.15;;
43363;SDS011;40636;52.424;-1.948;2023-03-14T06:51:16;1.20;;;1.10;;
43363;SDS011;40636;52.424;-1.948;2023-03-14T06:53:43;2.45;;;1.40;;
43363;SDS011;40636;52.424;-1.948;2023-03-14T06:56:09;1.60;;;1.50;;
43363;SDS011;40636;52.424;-1.948;2023-03-14T06:58:36;2.58;;;1.60;;
43363;SDS011;40636;52.424;-1.948;2023-03-14T07:01:03;2.00;;;1.80;;
43363;SDS011;40636;52.424;-1.948;2023-03-14T07:03:30;4.43;;;2.85;;
43363;SDS011;40636;52.424;-1.948;2023-03-14T07:05:57;5.85;;;3.15;;
43363;SDS011;40636;52.424;-1.948;2023-03-14T07:08:23;4.93;;;3.30;;
43363;SDS011;40636;52.424;-1.948;2023-03-14T07:10:50;4.47;;;3.38;;
43363;SDS011;40636;52.424;-1.948;2023-03-14T07:13:17;4.65;;;3.10;;
43363;SDS011;40636;52.424;-1.948;2023-03-14T07:15:44;5.45;;;3.03;;
43363;SDS011;40636;52.424;-1.948;2023-03-14T07:18:11;4.65;;;2.67;;
43363;SDS011;40636;52.424;-1.948;2023-03-14T07:20:37;3.88;;;2.47;;
43363;SDS011;40636;52.424;-1.948;2023-03-14T07:23:04;3.65;;;2.75;;
43363;SDS011;40636;52.424;-1.948;2023-03-14T07:25:31;4.68;;;2.78;;
43363;SDS011;40636;52.424;-1.948;2023-03-14T07:27:57;4.60;;;3.30;;
43363;SDS011;40636;52.424;-1.948;2023-03-14T07:30:24;5.45;;;3.72;;
43363;SDS011;40636;52.424;-1.948;2023-03-14T07:32:51;4.38;;;3.17;;
43363;SDS011;40636;52.424;-1.948;2023-03-14T07:35:18;5.00;;;3.05;;
43363;SDS011;40636;52.424;-1.948;2023-03-14T07:37:45;6.05;;;3.40;;
43363;SDS011;40636;52.424;-1.948;2023-03-14T07:40:11;5.32;;;3.40;;
43363;SDS011;40636;52.424;-1.948;2023-03-14T07:42:41;5.80;;;3.42;;
43363;SDS011;40636;52.424;-1.948;2023-03-14T07:45:09;6.40;;;3.25;;
43363;SDS011;40636;52.424;-1.948;2023-03-14T07:47:37;4.20;;;3.05;;
43363;SDS011;40636;52.424;-1.948;2023-03-14T07:50:04;4.72;;;2.67;;
43363;SDS011;40636;52.424;-1.948;2023-03-14T07:52:31;4.80;;;3.08;;
43363;SDS011;40636;52.424;-1.948;2023-03-14T07:54:58;4.93;;;3.00;;
43363;SDS011;40636;52.424;-1.948;2023-03-14T07:57:25;3.92;;;2.40;;
43363;SDS011;40636;52.424;-1.948;2023-03-14T07:59:51;9.00;;;3.03;;
43363;SDS011;40636;52.424;-1.948;2023-03-14T08:02:18;5.30;;;3.55;;
43363;SDS011;40636;52.424;-1.948;2023-03-14T08:04:49;4.90;;;3.25;;
43363;SDS011;40636;52.424;-1.948;2023-03-14T08:07:15;3.78;;;3.30;;
43363;SDS011;40636;52.424;-1.948;2023-03-14T08:09:43;4.55;;;2.83;;
43363;SDS011;40636;52.424;-1.948;2023-03-14T08:12:09;3.70;;;3.08;;
43363;SDS011;40636;52.424;-1.948;2023-03-14T08:14:36;6.07;;;4.45;;
43363;SDS011;40636;52.424;-1.948;2023-03-14T08:17:03;4.43;;;3.38;;
43363;SDS011;40636;52.424;-1.948;2023-03-14T08:19:30;7.75;;;3.33;;
43363;SDS011;40636;52.424;-1.948;2023-03-14T08:21:57;6.57;;;3.17;;
43363;SDS011;40636;52.424;-1.948;2023-03-14T08:24:24;4.72;;;2.67;;
43363;SDS011;40636;52.424;-1.948;2023-03-14T08:26:51;7.82;;;3.17;;
43363;SDS011;40636;52.424;-1.948;2023-03-14T08:29:17;4.47;;;2.50;;
43363;SDS011;40636;52.424;-1.948;2023-03-14T08:31:44;5.07;;;3.85;;
43363;SDS011;40636;52.424;-1.948;2023-03-14T08:34:11;7.32;;;2.85;;
43363;SDS011;40636;52.424;-1.948;2023-03-14T08:36:38;4.05;;;2.65;;
43363;SDS011;40636;52.424;-1.948;2023-03-14T08:39:05;3.83;;;2.45;;
43363;SDS011;40636;52.424;-1.948;2023-03-14T08:41:34;10.30;;;4.50;;
43363;SDS011;40636;52.424;-1.948;2023-03-14T08:44:07;4.55;;;2.33;;
43363;SDS011;40636;52.424;-1.948;2023-03-14T08:46:34;4.60;;;2.80;;
43363;SDS011;40636;52.424;-1.948;2023-03-14T08:49:02;5.30;;;3.00;;
43363;SDS011;40636;52.424;-1.948;2023-03-14T08:51:29;4.47;;;2.83;;
43363;SDS011;40636;52.424;-1.948;2023-03-14T08:53:56;6.95;;;2.75;;
43363;SDS011;40636;52.424;-1.948;2023-03-14T08:56:23;11.02;;;2.33;;
43363;SDS011;40636;52.424;-1.948;2023-03-14T08:58:51;6.13;;;3.25;;
43363;SDS011;40636;52.424;-1.948;2023-03-14T09:01:18;5.68;;;2.45;;
43363;SDS011;40636;52.424;-1.948;2023-03-14T09:03:45;4.63;;;2.20;;
43363;SDS011;40636;52.424;-1.948;2023-03-14T09:06:14;8.88;;;2.63;;
43363;SDS011;40636;52.424;-1.948;2023-03-14T09:08:44;6.40;;;2.65;;
43363;SDS011;40636;52.424;-1.948;2023-03-14T09:11:11;11.40;;;2.88;;
43363;SDS011;40636;52.424;-1.948;2023-03-14T09:13:39;8.73;;;2.03;;
43363;SDS011;40636;52.424;-1.948;2023-03-14T09:16:06;6.60;;;1.88;;
43363;SDS011;40636;52.424;-1.948;2023-03-14T09:18:34;6.47;;;1.50;;
43363;SDS011;40636;52.424;-1.948;2023-03-14T09:21:01;6.32;;;2.45;;
43363;SDS011;40636;52.424;-1.948;2023-03-14T09:23:28;5.85;;;2.10;;
43363;SDS011;40636;52.424;-1.948;2023-03-14T09:25:55;6.68;;;2.28;;
43363;SDS011;40636;52.424;-1.948;2023-03-14T09:28:23;13.25;;;2.70;;
43363;SDS011;40636;52.424;-1.948;2023-03-14T09:30:50;6.07;;;2.40;;
43363;SDS011;40636;52.424;-1.948;2023-03-14T09:33:17;9.13;;;1.50;;
43363;SDS011;40636;52.424;-1.948;2023-03-14T09:35:44;6.65;;;2.38;;
43363;SDS011;40636;52.424;-1.948;2023-03-14T09:38:11;7.18;;;1.75;;
43363;SDS011;40636;52.424;-1.948;2023-03-14T09:40:38;9.55;;;2.35;;
43363;SDS011;40636;52.424;-1.948;2023-03-14T09:43:05;10.45;;;1.63;;
43363;SDS011;40636;52.424;-1.948;2023-03-14T09:45:33;4.88;;;2.03;;
43363;SDS011;40636;52.424;-1.948;2023-03-14T09:48:03;8.93;;;1.75;;
43363;SDS011;40636;52.424;-1.948;2023-03-14T09:50:33;6.70;;;1.92;;
43363;SDS011;40636;52.424;-1.948;2023-03-14T09:53:07;2.75;;;2.05;;
43363;SDS011;40636;52.424;-1.948;2023-03-14T09:55:38;5.07;;;1.85;;
43363;SDS011;40636;52.424;-1.948;2023-03-14T09:58:09;5.80;;;2.00;;
43363;SDS011;40636;52.424;-1.948;2023-03-14T10:00:38;11.50;;;1.92;;
43363;SDS011;40636;52.424;-1.948;2023-03-14T10:05:39;8.40;;;2.22;;
43363;SDS011;40636;52.424;-1.948;2023-03-14T10:08:10;4.43;;;1.77;;
43363;SDS011;40636;52.424;-1.948;2023-03-14T10:10:38;4.80;;;1.90;;
43363;SDS011;40636;52.424;-1.948;2023-03-14T10:13:16;4.72;;;2.25;;
43363;SDS011;40636;52.424;-1.948;2023-03-14T10:15:50;11.35;;;2.80;;
43363;SDS011;40636;52.424;-1.948;2023-03-14T10:18:19;10.00;;;2.28;;
43363;SDS011;40636;52.424;-1.948;2023-03-14T10:20:49;8.75;;;2.17;;
43363;SDS011;40636;52.424;-1.948;2023-03-14T10:23:29;3.72;;;1.83;;
43363;SDS011;40636;52.424;-1.948;2023-03-14T10:28:29;6.53;;;2.13;;
43363;SDS011;40636;52.424;-1.948;2023-03-14T10:30:58;4.15;;;3.53;;
43363;SDS011;40636;52.424;-1.948;2023-03-14T10:33:27;11.27;;;2.33;;
43363;SDS011;40636;52.424;-1.948;2023-03-14T10:36:00;16.70;;;2.95;;
43363;SDS011;40636;52.424;-1.948;2023-03-14T10:38:32;7.00;;;2.40;;
43363;SDS011;40636;52.424;-1.948;2023-03-14T10:41:01;10.90;;;2.05;;
43363;SDS011;40636;52.424;-1.948;2023-03-14T10:43:33;6.47;;;1.67;;
43363;SDS011;40636;52.424;-1.948;2023-03-14T10:46:08;10.10;;;3.03;;
43363;SDS011;40636;52.424;-1.948;2023-03-14T10:48:38;8.02;;;1.77;;
43363;SDS011;40636;52.424;-1.948;2023-03-14T10:51:09;3.17;;;1.90;;
43363;SDS011;40636;52.424;-1.948;2023-03-14T10:56:19;8.98;;;2.38;;
43363;SDS011;40636;52.424;-1.948;2023-03-14T10:58:48;3.05;;;1.58;;
43363;SDS011;40636;52.424;-1.948;2023-03-14T11:04:31;4.25;;;1.77;;
43363;SDS011;40636;52.424;-1.948;2023-03-14T11:09:56;5.03;;;1.80;;
43363;SDS011;40636;52.424;-1.948;2023-03-14T11:15:27;7.80;;;1.80;;
43363;SDS011;40636;52.424;-1.948;2023-03-14T11:20:55;5.97;;;1.35;;
43363;SDS011;40636;52.424;-1.948;2023-03-14T11:29:31;5.63;;;1.88;;
43363;SDS011;40636;52.424;-1.948;2023-03-14T11:32:01;9.35;;;3.03;;
43363;SDS011;40636;52.424;-1.948;2023-03-14T11:37:36;3.83;;;1.30;;
43363;SDS011;40636;52.424;-1.948;2023-03-14T11:40:18;6.45;;;1.77;;
43363;SDS011;40636;52.424;-1.948;2023-03-14T11:42:48;3.60;;;1.23;;
43363;SDS011;40636;52.424;-1.948;2023-03-14T11:45:41;6.88;;;1.42;;
43363;SDS011;40636;52.424;-1.948;2023-03-14T11:48:14;6.30;;;1.00;;
43363;SDS011;40636;52.424;-1.948;2023-03-14T11:50:47;3.78;;;1.00;;
43363;SDS011;40636;52.424;-1.948;2023-03-14T11:53:19;4.82;;;1.33;;
43363;SDS011;40636;52.424;-1.948;2023-03-14T11:55:55;3.50;;;1.10;;
43363;SDS011;40636;52.424;-1.948;2023-03-14T11:58:33;4.20;;;1.52;;
43363;SDS011;40636;52.424;-1.948;2023-03-14T12:01:06;9.82;;;1.80;;
43363;SDS011;40636;52.424;-1.948;2023-03-14T12:08:52;7.75;;;1.48;;
43363;SDS011;40636;52.424;-1.948;2023-03-14T12:11:27;3.20;;;1.10;;
43363;SDS011;40636;52.424;-1.948;2023-03-14T12:13:58;6.13;;;1.42;;
43363;SDS011;40636;52.424;-1.948;2023-03-14T12:16:36;5.22;;;1.17;;
43363;SDS011;40636;52.424;-1.948;2023-03-14T12:19:13;8.60;;;1.45;;
43363;SDS011;40636;52.424;-1.948;2023-03-14T12:21:43;3.60;;;1.63;;
43363;SDS011;40636;52.424;-1.948;2023-03-14T12:24:17;5.90;;;1.13;;
43363;SDS011;40636;52.424;-1.948;2023-03-14T12:26:50;7.32;;;2.60;;
43363;SDS011;40636;52.424;-1.948;2023-03-14T12:29:19;6.53;;;1.48;;
43363;SDS011;40636;52.424;-1.948;2023-03-14T12:31:47;4.32;;;1.25;;
43363;SDS011;40636;52.424;-1.948;2023-03-14T12:42:02;3.25;;;0.85;;
43363;SDS011;40636;52.424;-1.948;2023-03-14T12:47:40;1.35;;;0.98;;
43363;SDS011;40636;52.424;-1.948;2023-03-14T12:50:01;5.30;;;1.10;;
43363;SDS011;40636;52.424;-1.948;2023-03-14T12:52:44;1.05;;;0.98;;
43363;SDS011;40636;52.424;-1.948;2023-03-14T12:56:02;2.00;;;1.00;;
43363;SDS011;40636;52.424;-1.948;2023-03-14T12:58:36;2.88;;;1.10;;
43363;SDS011;40636;52.424;-1.948;2023-03-14T13:01:18;5.18;;;1.05;;
43363;SDS011;40636;52.424;-1.948;2023-03-14T13:03:47;2.97;;;1.20;;
43363;SDS011;40636;52.424;-1.948;2023-03-14T13:12:13;2.20;;;1.02;;
43363;SDS011;40636;52.424;-1.948;2023-03-14T13:14:43;2.45;;;0.90;;
43363;SDS011;40636;52.424;-1.948;2023-03-14T13:17:12;0.68;;;0.68;;
43363;SDS011;40636;52.424;-1.948;2023-03-14T13:20:02;1.95;;;1.42;;
43363;SDS011;40636;52.424;-1.948;2023-03-14T13:22:49;2.17;;;0.88;;
43363;SDS011;40636;52.424;-1.948;2023-03-14T13:25:17;1.67;;;0.80;;
43363;SDS011;40636;52.424;-1.948;2023-03-14T13:27:44;3.90;;;0.95;;
43363;SDS011;40636;52.424;-1.948;2023-03-14T13:32:43;4.22;;;1.00;;
43363;SDS011;40636;52.424;-1.948;2023-03-14T13:35:38;3.88;;;0.85;;
43363;SDS011;40636;52.424;-1.948;2023-03-14T13:38:18;3.15;;;2.90;;
43363;SDS011;40636;52.424;-1.948;2023-03-14T13:40:46;4.15;;;0.80;;
43363;SDS011;40636;52.424;-1.948;2023-03-14T13:48:14;2.35;;;0.93;;
43363;SDS011;40636;52.424;-1.948;2023-03-14T13:50:49;5.97;;;1.40;;
43363;SDS011;40636;52.424;-1.948;2023-03-14T13:53:18;1.77;;;0.80;;
43363;SDS011;40636;52.424;-1.948;2023-03-14T13:55:45;9.90;;;2.17;;
43363;SDS011;40636;52.424;-1.948;2023-03-14T13:58:25;5.78;;;1.30;;
43363;SDS011;40636;52.424;-1.948;2023-03-14T14:00:58;0.73;;;0.55;;
43363;SDS011;40636;52.424;-1.948;2023-03-14T14:03:30;3.15;;;1.17;;
43363;SDS011;40636;52.424;-1.948;2023-03-14T14:05:58;4.40;;;0.90;;
43363;SDS011;40636;52.424;-1.948;2023-03-14T14:08:25;1.83;;;0.73;;
43363;SDS011;40636;52.424;-1.948;2023-03-14T14:10:54;2.85;;;1.58;;
43363;SDS011;40636;52.424;-1.948;2023-03-14T14:13:26;2.92;;;0.70;;
43363;SDS011;40636;52.424;-1.948;2023-03-14T14:15:58;3.40;;;1.27;;
43363;SDS011;40636;52.424;-1.948;2023-03-14T14:18:27;3.05;;;1.00;;
43363;SDS011;40636;52.424;-1.948;2023-03-14T14:20:56;3.80;;;0.90;;
43363;SDS011;40636;52.424;-1.948;2023-03-14T14:23:24;5.28;;;1.27;;
43363;SDS011;40636;52.424;-1.948;2023-03-14T14:25:58;0.70;;;0.60;;
43363;SDS011;40636;52.424;-1.948;2023-03-14T14:28:32;2.33;;;1.38;;
43363;SDS011;40636;52.424;-1.948;2023-03-14T14:31:17;2.50;;;0.90;;
43363;SDS011;40636;52.424;-1.948;2023-03-14T14:33:53;5.10;;;1.42;;
43363;SDS011;40636;52.424;-1.948;2023-03-14T14:36:26;2.30;;;0.60;;
43363;SDS011;40636;52.424;-1.948;2023-03-14T14:39:03;3.13;;;1.10;;
43363;SDS011;40636;52.424;-1.948;2023-03-14T14:41:32;2.65;;;0.80;;
43363;SDS011;40636;52.424;-1.948;2023-03-14T14:44:02;2.75;;;0.75;;
43363;SDS011;40636;52.424;-1.948;2023-03-14T14:46:30;1.83;;;1.65;;
43363;SDS011;40636;52.424;-1.948;2023-03-14T14:49:04;1.85;;;0.90;;
43363;SDS011;40636;52.424;-1.948;2023-03-14T14:51:40;1.73;;;1.23;;
43363;SDS011;40636;52.424;-1.948;2023-03-14T14:54:10;2.78;;;0.70;;
43363;SDS011;40636;52.424;-1.948;2023-03-14T14:56:51;3.22;;;1.35;;
43363;SDS011;40636;52.424;-1.948;2023-03-14T14:59:26;2.30;;;0.80;;
43363;SDS011;40636;52.424;-1.948;2023-03-14T15:01:58;2.33;;;0.70;;
43363;SDS011;40636;52.424;-1.948;2023-03-14T15:04:26;1.50;;;0.75;;
43363;SDS011;40636;52.424;-1.948;2023-03-14T15:06:57;1.30;;;0.80;;
43363;SDS011;40636;52.424;-1.948;2023-03-14T15:09:23;1.25;;;0.77;;
43363;SDS011;40636;52.424;-1.948;2023-03-14T15:11:50;2.60;;;0.88;;
43363;SDS011;40636;52.424;-1.948;2023-03-14T15:14:17;4.72;;;0.80;;
43363;SDS011;40636;52.424;-1.948;2023-03-14T15:16:43;1.35;;;0.90;;
43363;SDS011;40636;52.424;-1.948;2023-03-14T15:19:12;3.28;;;0.70;;
43363;SDS011;40636;52.424;-1.948;2023-03-14T15:21:51;1.17;;;0.70;;
43363;SDS011;40636;52.424;-1.948;2023-03-14T15:24:19;2.78;;;0.77;;
43363;SDS011;40636;52.424;-1.948;2023-03-14T15:26:45;1.23;;;0.80;;
43363;SDS011;40636;52.424;-1.948;2023-03-14T15:29:12;1.23;;;0.57;;
43363;SDS011;40636;52.424;-1.948;2023-03-14T15:31:39;1.20;;;0.80;;
43363;SDS011;40636;52.424;-1.948;2023-03-14T15:34:06;2.15;;;0.60;;
43363;SDS011;40636;52.424;-1.948;2023-03-14T15:36:34;7.20;;;0.90;;
43363;SDS011;40636;52.424;-1.948;2023-03-14T15:39:03;0.40;;;0.40;;
43363;SDS011;40636;52.424;-1.948;2023-03-14T15:41:32;1.23;;;0.57;;
43363;SDS011;40636;52.424;-1.948;2023-03-14T15:43:59;2.63;;;0.93;;
43363;SDS011;40636;52.424;-1.948;2023-03-14T15:46:25;3.75;;;1.52;;
43363;SDS011;40636;52.424;-1.948;2023-03-14T15:48:55;2.28;;;0.73;;
43363;SDS011;40636;52.424;-1.948;2023-03-14T15:51:22;1.20;;;0.60;;